Decoded Metar for LZPP (PIESTANY in SLOVAKIA) (IATA:PZY) | Meteo·Mobile Aviation Weather
aviador You're here:

LZPP Decoded Metar

PIESTANY in SLOVAKIA
Report Time2018-09-19 20:30:00
UTC Time2018-09-19 20:53:08
Flight Rules vfr VFR
Wind020° at 03 kt
W.Decomp.*RWY 01: 3.0 kt HW 0.4 kt RCW
W.Rank020° ranks 5
Current wind is below 020° avg. (5.3)
Visibility9999 m
Phenomena:N/A
Clouds:N/A
Expected CloudBase > 1,600 ft AGL from Temp-Dew spread
CeilingNone
Temp15°C (ISA +1)
Dew Point11°C (77% RH)
AAT14.2°C
QNH1021 hPa
Density Alt561 ft
Elevation528 ft
Report Wrong Elevation
Raw Report
LZPP 192030Z AUTO 02003KT 9999 NCD 15/11 Q1021=

Extra information for LZPP:More info

Metar Taf Metar & Taf Last 4 Metars F.Rules Stats Wind Profile Meteogram Temp Stats Airport Information Weather charts Add Link Nearby VenuesMetar ALERT Operation Metar Decoded Social comments